• Join FlightAware (Why Join?)
  • Login
  • US Flag 
08:59PM EDT


 

Airport Tracker/Info


-or-


 

Live Flight TrackerFlight Track Log ✈ SWA378 ✈ 07-May-2013 ✈ KBWI - KALB

Flight Track Log - Related Links

Times and Time Zones

All times are in EDT time to prevent confusion due to time zone crossing. See the SWA378 flight status page for this flight to view local times or setup timezone preferences in your user account.

Time Position Orientation Groundspeed Altitude Reporting Facility
EDT Latitude Longitude Course Direction KTS MPH feet Rate Location/Type
10:34PM 39.1500 -76.6500 109° East 150 173 1,900  Level Potomac TRACON
10:36PM 39.1161 -76.5225 109° East 179 206 8,300 3,000 Climbing Washington Center
10:37PM 39.1272 -76.4264 81° East 220 253 11,100 3,060 Climbing Washington Center
10:38PM 39.1383 -76.3114 83° East 290 334 14,300 3,480 Climbing Washington Center
10:39PM 39.1328 -76.1883 93° East 312 359 18,100 3,300 Climbing Washington Center
10:40PM 39.1272 -76.0544 93° East 327 376 21,000 2,160 Climbing Washington Center
10:41PM 39.1650 -75.9397 67° East 333 383 22,500 960 Climbing Washington Center
10:42PM 39.2319 -75.8300 52° Northeast 355 409 23,000 1,680 Climbing Washington Center
10:43PM 39.3114 -75.7283 45° Northeast 375 432 25,900 2,820 Climbing Washington Center
10:44PM 39.3886 -75.6319 44° Northeast 375 432 28,700 1,560 Climbing Washington Center
10:45PM 39.4636 -75.5297 46° Northeast 380 437 29,000 60 Climbing Washington Center
10:47PM 39.5903 -75.3667 45° Northeast 376 433 29,000  Level New York Center
10:48PM 39.6672 -75.2667 45° Northeast 381 438 29,000  Level New York Center
10:49PM 39.7489 -75.1450 49° Northeast 386 444 29,000  Level New York Center
10:50PM 39.8236 -75.0389 47° Northeast 397 457 29,000  Level New York Center
10:51PM 39.8961 -74.9350 48° Northeast 397 457 29,000  Level New York Center
10:52PM 39.9553 -74.8519 47° Northeast 397 457 29,000  Level New York Center
10:53PM 40.0408 -74.7347 46° Northeast 397 457 29,000  Level New York Center
10:54PM 40.1150 -74.6306 47° Northeast 397 457 29,000  Level New York Center
10:55PM 40.1872 -74.5231 49° Northeast 397 457 29,000  Level New York Center
10:56PM 40.2806 -74.4111 42° Northeast 402 463 29,000  Level New York Center
10:58PM 40.4353 -74.2450 39° Northeast 396 456 29,000  Level Boston Center
10:59PM 40.5222 -74.1492 40° Northeast 402 463 29,000 -540 Level Boston Center
11:00PM 40.6092 -74.0558 39° Northeast 402 463 28,000 -1,440 Descending Boston Center
11:01PM 40.6872 -73.9783 37° Northeast 402 463 26,200 -1,920 Descending Boston Center
11:02PM 40.7697 -73.8897 39° Northeast 397 457 24,200 -1,140 Descending Boston Center
11:03PM 40.8500 -73.7928 42° Northeast 392 451 24,000 -120 Descending Boston Center
11:04PM 40.9386 -73.6983 39° Northeast 392 451 24,000 -360 Level Boston Center
11:05PM 41.0556 -73.6953 North 380 437 23,300 -540 Descending Boston Center
11:06PM 41.1678 -73.7031 357° North 392 451 23,000 -600 Descending Boston Center
11:07PM 41.2844 -73.7108 357° North 397 457 22,100 -960 Descending Boston Center
11:08PM 41.3992 -73.7131 359° North 403 464 21,100 -1,020 Descending Boston Center
11:09PM 41.5117 -73.7208 357° North 403 464 20,100 -600 Descending Boston Center
11:10PM 41.6197 -73.7286 357° North 403 464 20,000 -1,140 Descending Boston Center
11:11PM 41.7364 -73.7392 356° North 388 447 17,900 -1,980 Descending Boston Center
11:12PM 41.8406 -73.7469 357° North 375 432 16,100 -2,040 Descending Boston Center
11:12PM 41.9197 -73.7486 359° North 370 426 14,300 -2,220 Descending Boston Center
11:13PM 42.0219 -73.7536 358° North 362 417 12,200 -1,680 Descending Boston Center
11:14PM 42.1175 -73.7611 357° North 346 398 11,000 -600 Descending Boston Center
11:15PM 42.2114 -73.7686 357° North 332 382 11,000 -360 Level Boston Center
11:16PM 42.3008 -73.7875 351° North 323 372 10,300 -900 Descending Boston Center
11:17PM 42.3256 -73.7908 354° North 324 373 9,800 -1,500 Descending Boston Center
11:17PM 42.3839 -73.8061 349° North 298 343 8,800 -1,500 Descending Boston Center
11:18PM 42.4172 -73.8125 352° North 310 357 8,300 -1,380 Descending Boston Center
11:18PM 42.4650 -73.8247 349° North 293 337 7,400 -1,320 Descending Boston Center
11:19PM 42.4878 -73.8281 354° North 298 343 7,000 -1,620 Descending Boston Center
11:19PM 42.5458 -73.8436 349° North 289 333 5,800 -1,740 Descending Boston Center
11:20PM 42.5772 -73.8469 356° North 293 337 5,300 -1,380 Descending Boston Center
11:20PM 42.6250 -73.8567 351° North 286 329 4,400 -1,200 Descending Boston Center
11:21PM 42.6478 -73.8656 344° North 293 337 4,100 -420 Descending Boston Center
11:21PM 42.6997 -73.8725 354° North 262 302 4,000 -120 Descending Boston Center
11:22PM 42.7186 -73.8756 353° North 286 329 4,000 -480 Level Boston Center
11:22PM 42.7603 -73.8822 353° North 211 243 3,600 -720 Descending Boston Center
11:23PM 42.7747 -73.8883 343° North 245 282 3,300 -1,020 Descending Boston Center
11:23PM 42.8081 -73.8778 13° North 160 184 2,600 -1,200 Descending Boston Center
11:24PM 42.8186 -73.8667 38° Northeast 207 238 2,100 -1,320 Descending Boston Center
11:24PM 42.8211 -73.8300 85° East 130 150 1,300 20,880 Descending Boston Center
11:25PM 42.8708 -73.8536 341° North 207 238 23,000 -420 Climbing Boston Center
11:25PM 42.7903 -73.8094 158° South 112 129 900  Descending Boston Center
11:26PM 42.9169 -73.8406 350° North 207 238 23,000 55,200 Climbing Boston Center
11:28PM 42.7491 -73.8020 172° South  Level Estimated
11:35PM 42.7491 -73.8020 172° South  Level Estimated
11:36PM 42.7491 -73.8020 172° South  Level Estimated